createdAt,value
2018-05-31T00:41:27.924Z,80.50
2018-05-31T00:43:56.204Z,80.60
2018-05-31T00:46:24.134Z,80.60
2018-05-31T00:48:54.403Z,80.50
2018-05-31T00:51:22.761Z,80.60
2018-05-31T00:53:50.988Z,80.50
2018-05-31T00:56:19.112Z,80.70
2018-05-31T00:58:50.718Z,80.80
2018-05-31T01:01:18.686Z,80.70
2018-05-31T01:03:49.026Z,80.70
2018-05-31T01:06:19.726Z,80.60
2018-05-31T01:08:48.695Z,80.70
2018-05-31T01:24:12.989Z,81.90
2018-05-31T01:26:42.644Z,81.50
2018-05-31T01:29:11.862Z,81.20
2018-05-31T01:31:41.557Z,80.90
2018-05-31T01:36:40.832Z,80.80
2018-05-31T01:39:17.996Z,80.80
2018-05-31T01:41:46.166Z,80.70
2018-05-31T01:44:14.437Z,80.60
2018-05-31T01:46:42.384Z,80.70
2018-05-31T01:51:39.396Z,80.50
2018-05-31T01:54:08.883Z,80.40
2018-05-31T01:56:37.194Z,80.60
2018-05-31T01:59:05.652Z,80.90
2018-05-31T02:01:33.866Z,81.10
2018-05-31T02:19:26.070Z,82.60
2018-05-31T02:26:52.058Z,81.70
2018-05-31T02:29:20.019Z,82.00
2018-05-31T02:31:48.717Z,82.00
2018-05-31T02:44:13.397Z,82.50
2018-05-31T03:01:20.285Z,83.70
2018-05-31T03:03:48.835Z,83.10
2018-05-31T03:23:45.207Z,81.90
2018-05-31T03:26:15.475Z,81.90
2018-05-31T04:33:49.802Z,81.10
2018-05-31T04:36:19.483Z,81.10
2018-05-31T04:41:18.547Z,80.80
2018-05-31T04:46:21.384Z,80.60
2018-05-31T04:51:22.151Z,80.60
2018-05-31T04:53:51.350Z,80.60
2018-05-31T04:56:20.952Z,80.70
2018-05-31T05:03:53.203Z,80.20
2018-05-31T05:06:23.428Z,80.40
2018-05-31T05:11:25.350Z,79.80
2018-05-31T05:13:55.375Z,79.50
2018-05-31T05:16:26.118Z,78.90
2018-05-31T05:18:58.530Z,78.50
2018-05-31T05:21:27.032Z,78.80
2018-05-31T05:23:58.214Z,78.40
2018-05-31T05:26:28.867Z,78.10
2018-05-31T05:28:58.774Z,77.70
2018-05-31T05:44:24.383Z,79.50
2018-05-31T05:49:26.508Z,77.90
2018-05-31T05:51:57.169Z,77.30
2018-05-31T05:54:28.129Z,76.80
2018-05-31T05:56:59.725Z,76.50
2018-05-31T05:59:30.679Z,76.00
2018-05-31T06:02:02.237Z,75.50
2018-05-31T06:13:25.994Z,74.80
2018-05-31T07:04:02.513Z,67.80
2018-05-31T07:06:33.351Z,67.00
2018-05-31T07:09:03.764Z,66.80
2018-05-31T07:11:35.023Z,67.50
2018-05-31T07:14:05.371Z,68.00
2018-05-31T07:16:39.322Z,67.70
2018-05-31T07:32:04.592Z,70.20
2018-05-31T07:34:34.357Z,68.80
2018-05-31T07:37:05.797Z,67.70
2018-05-31T07:39:36.824Z,67.00
2018-05-31T07:42:07.081Z,66.90
2018-05-31T07:53:47.817Z,66.10
2018-05-31T07:56:18.581Z,67.40
2018-05-31T07:58:51.013Z,66.50
2018-05-31T08:01:22.331Z,67.70
2018-05-31T08:03:53.550Z,66.50
2018-05-31T08:06:25.101Z,67.90
2018-05-31T08:08:55.240Z,66.80
2018-05-31T08:11:25.254Z,67.10
2018-05-31T08:13:55.740Z,66.20
2018-05-31T08:16:27.245Z,67.70
2018-05-31T08:18:58.697Z,66.60
2018-05-31T08:21:29.451Z,66.80
2018-05-31T08:24:00.438Z,65.70
2018-05-31T08:26:31.776Z,67.50
2018-05-31T08:29:03.112Z,65.10
2018-05-31T08:31:35.509Z,66.30
2018-05-31T08:34:06.738Z,66.20
2018-05-31T08:36:37.381Z,66.60
2018-05-31T08:39:08.709Z,66.90
2018-05-31T08:41:39.137Z,66.80
2018-05-31T08:44:08.341Z,66.70
2018-05-31T08:46:38.567Z,65.90
2018-05-31T08:49:10.186Z,66.20
2018-05-31T08:51:40.293Z,66.40
2018-05-31T08:54:09.797Z,66.30
2018-05-31T08:56:39.921Z,65.80
2018-05-31T08:59:09.322Z,66.10
2018-05-31T09:01:40.036Z,65.90
2018-05-31T09:04:11.383Z,66.00
2018-05-31T09:06:42.102Z,65.60
2018-05-31T09:09:12.153Z,65.60
2018-05-31T09:11:42.291Z,65.20
2018-05-31T09:14:12.090Z,65.30
2018-05-31T09:16:41.897Z,64.70
2018-05-31T09:19:26.648Z,65.00
2018-05-31T09:21:56.106Z,64.80
2018-05-31T11:47:10.643Z,37.60
2018-05-31T11:49:40.936Z,36.00
2018-05-31T11:52:12.071Z,37.30
2018-05-31T12:17:19.948Z,35.30
2018-05-31T12:19:52.579Z,34.20
2018-05-31T12:22:24.750Z,34.20
2018-05-31T12:24:56.610Z,34.30
2018-05-31T12:46:48.808Z,33.40
2018-05-31T13:01:45.525Z,35.00
2018-05-31T13:04:17.598Z,35.10
2018-05-31T13:06:49.550Z,34.90
2018-05-31T13:09:21.484Z,35.30
2018-05-31T13:11:53.145Z,36.70
2018-05-31T13:14:25.597Z,37.30
2018-05-31T13:16:58.842Z,37.50
2018-05-31T13:19:32.376Z,39.00
2018-05-31T13:22:03.630Z,40.30
2018-05-31T13:37:30.774Z,41.30
2018-05-31T13:40:03.678Z,37.50
2018-05-31T13:55:29.423Z,37.70
2018-05-31T13:58:01.555Z,37.50
2018-05-31T14:00:33.326Z,36.40
2018-05-31T14:03:06.753Z,37.70
2018-05-31T14:05:39.367Z,40.30
2018-05-31T14:08:11.122Z,41.40
2018-05-31T14:10:41.646Z,43.00
2018-05-31T14:13:13.732Z,43.10
2018-05-31T14:15:45.590Z,43.00
2018-05-31T14:18:21.458Z,42.80
2018-05-31T14:20:54.748Z,42.70
2018-05-31T14:46:00.531Z,47.80
2018-05-31T14:48:33.154Z,48.40
2018-05-31T14:51:04.409Z,48.80
2018-05-31T14:53:34.485Z,49.30
2018-05-31T15:05:15.448Z,51.40
2018-05-31T15:30:22.848Z,52.50
2018-05-31T15:32:54.767Z,52.60
2018-05-31T15:35:26.132Z,54.20
2018-05-31T15:37:57.268Z,57.80
2018-05-31T15:40:29.802Z,60.40
2018-05-31T15:43:00.983Z,61.90
2018-05-31T15:45:32.124Z,63.20
2018-05-31T16:07:24.918Z,64.20
2018-05-31T16:09:54.352Z,64.10
2018-05-31T16:12:27.130Z,63.50
2018-05-31T16:14:59.408Z,62.80
2018-05-31T16:17:30.707Z,63.10
2018-05-31T16:32:59.000Z,64.10
2018-05-31T16:58:04.894Z,66.00
2018-05-31T17:00:35.508Z,67.80
2018-05-31T17:03:04.513Z,68.20
2018-05-31T17:14:44.578Z,76.70
2018-05-31T17:17:16.717Z,75.60
2018-05-31T17:35:57.346Z,78.20
2018-05-31T17:40:58.320Z,79.90
2018-05-31T17:46:00.358Z,80.20
2018-05-31T17:48:30.369Z,80.80
2018-05-31T17:51:00.491Z,78.70
2018-05-31T17:56:00.412Z,78.30
2018-05-31T18:01:01.804Z,78.80
2018-05-31T18:23:00.765Z,76.30
2018-05-31T18:25:32.443Z,76.40
2018-05-31T18:28:03.208Z,75.50
2018-05-31T18:30:36.419Z,76.70
2018-05-31T18:33:06.182Z,76.40
2018-05-31T18:35:36.345Z,76.60
2018-05-31T18:38:06.284Z,76.00
2018-05-31T18:40:39.203Z,75.30
2018-05-31T18:43:09.341Z,76.20
2018-05-31T18:45:39.802Z,76.60
2018-05-31T18:48:10.935Z,75.30
2018-05-31T18:50:42.238Z,76.60
2018-05-31T18:53:12.825Z,75.90
2018-05-31T18:55:43.468Z,76.10
2018-05-31T18:58:14.927Z,76.70
2018-05-31T19:00:47.240Z,77.80
2018-05-31T19:05:51.588Z,77.40
2018-05-31T19:13:26.969Z,77.60
2018-05-31T19:15:57.336Z,77.40
2018-05-31T19:41:19.601Z,79.40
2018-05-31T20:00:06.857Z,80.70
2018-05-31T20:35:18.485Z,80.00
2018-05-31T20:50:18.929Z,79.30
2018-05-31T20:52:50.818Z,79.60
2018-05-31T21:00:21.840Z,79.80
2018-05-31T21:12:34.333Z,82.20
2018-05-31T21:30:05.763Z,81.10
2018-05-31T22:25:25.566Z,81.00
